createdAt,value
2022-10-22T00:00:34.330Z,8.95
2022-10-22T00:03:00.958Z,8.52
2022-10-22T00:05:27.692Z,7.43
2022-10-22T00:07:54.260Z,8.30
2022-10-22T00:10:21.073Z,8.48
2022-10-22T00:12:47.583Z,8.13
2022-10-22T00:15:15.636Z,8.15
2022-10-22T00:17:42.615Z,8.63
2022-10-22T00:20:10.064Z,9.40
2022-10-22T00:22:36.691Z,9.48
2022-10-22T00:25:04.329Z,9.88
2022-10-22T00:27:30.894Z,9.52
2022-10-22T00:29:57.518Z,9.65
2022-10-22T00:32:25.399Z,10.52
2022-10-22T00:34:52.064Z,9.77
2022-10-22T00:37:18.613Z,8.43
2022-10-22T00:39:45.150Z,9.52
2022-10-22T00:42:17.825Z,8.40
2022-10-22T00:45:16.654Z,8.70
2022-10-22T00:47:48.813Z,7.68
2022-10-22T00:50:18.903Z,7.78
2022-10-22T00:52:45.819Z,8.05
2022-10-22T00:55:13.340Z,8.63
2022-10-22T00:57:40.486Z,7.30
2022-10-22T01:00:08.490Z,7.80
2022-10-22T01:02:35.884Z,8.25
2022-10-22T01:05:04.789Z,8.55
2022-10-22T01:07:31.478Z,8.18
2022-10-22T01:10:05.858Z,8.07
2022-10-22T01:12:43.063Z,7.97
2022-10-22T01:15:17.826Z,7.93
2022-10-22T01:17:51.790Z,9.02
2022-10-22T01:20:39.271Z,9.30
2022-10-22T01:23:21.238Z,9.55
2022-10-22T01:25:53.822Z,9.90
2022-10-22T01:28:31.854Z,9.82
2022-10-22T01:31:01.598Z,10.50
2022-10-22T01:33:30.188Z,9.38
2022-10-22T01:35:58.615Z,10.13
2022-10-22T01:38:26.337Z,9.55
2022-10-22T01:40:53.281Z,9.73
2022-10-22T01:43:20.009Z,10.80
2022-10-22T01:45:48.928Z,8.87
2022-10-22T01:48:40.838Z,9.98
2022-10-22T01:51:27.313Z,10.73
2022-10-22T01:53:59.848Z,9.60
2022-10-22T01:56:38.723Z,9.82
2022-10-22T01:59:14.569Z,9.77
2022-10-22T02:01:48.233Z,9.20
2022-10-22T02:04:21.314Z,8.30
2022-10-22T02:06:50.832Z,8.95
2022-10-22T02:09:21.702Z,8.57
2022-10-22T02:11:49.314Z,9.10
2022-10-22T02:14:19.218Z,7.72
2022-10-22T02:16:48.508Z,7.78
2022-10-22T02:19:22.802Z,7.80
2022-10-22T02:21:49.570Z,7.90
2022-10-22T02:24:16.779Z,8.63
2022-10-22T02:26:51.938Z,7.70
2022-10-22T02:29:21.767Z,7.90
2022-10-22T02:31:50.456Z,6.95
2022-10-22T02:34:22.514Z,7.28
2022-10-22T02:36:50.831Z,6.35
2022-10-22T02:39:19.999Z,7.00
2022-10-22T02:41:47.000Z,7.47
2022-10-22T02:44:13.665Z,7.03
2022-10-22T02:46:42.105Z,7.22
2022-10-22T02:49:08.721Z,6.53
2022-10-22T02:51:36.664Z,7.55
2022-10-22T02:54:05.399Z,6.75
2022-10-22T02:56:32.372Z,7.88
2022-10-22T02:58:59.011Z,7.55
2022-10-22T03:01:25.931Z,7.50
2022-10-22T03:03:52.534Z,7.35
2022-10-22T03:06:20.158Z,7.47
2022-10-22T03:08:48.171Z,7.00
2022-10-22T03:11:14.969Z,7.88
2022-10-22T03:13:41.532Z,7.55
2022-10-22T03:16:08.632Z,8.23
2022-10-22T03:18:35.506Z,7.68
2022-10-22T03:21:08.085Z,7.60
2022-10-22T03:23:36.137Z,7.05
2022-10-22T03:26:05.144Z,7.07
2022-10-22T03:28:31.796Z,6.85
2022-10-22T03:30:58.447Z,6.80
2022-10-22T03:33:25.154Z,6.10
2022-10-22T03:35:51.868Z,6.13
2022-10-22T03:38:18.631Z,6.20
2022-10-22T03:40:46.056Z,6.47
2022-10-22T03:43:14.958Z,5.93
2022-10-22T03:45:41.615Z,5.80
2022-10-22T03:48:08.223Z,5.10
2022-10-22T03:50:35.478Z,5.60
2022-10-22T03:53:02.105Z,5.00
2022-10-22T03:55:28.736Z,4.63
2022-10-22T03:57:55.333Z,4.53
2022-10-22T04:00:23.385Z,4.70
2022-10-22T04:02:49.956Z,4.47
2022-10-22T04:05:16.743Z,4.05
2022-10-22T04:07:43.438Z,3.95
2022-10-22T04:10:10.211Z,3.75
2022-10-22T04:12:36.761Z,3.80
2022-10-22T04:15:03.934Z,3.63
2022-10-22T04:17:34.948Z,3.45
2022-10-22T04:20:01.731Z,3.80
2022-10-22T04:22:28.430Z,3.33
2022-10-22T04:24:55.050Z,3.20
2022-10-22T04:27:21.597Z,3.45
2022-10-22T04:29:48.117Z,3.03
2022-10-22T04:32:14.698Z,3.15
2022-10-22T04:34:42.553Z,3.45
2022-10-22T04:37:09.125Z,2.67
2022-10-22T04:39:35.632Z,3.05
2022-10-22T04:42:02.168Z,3.08
2022-10-22T04:44:28.770Z,2.85
2022-10-22T04:46:55.329Z,3.30
2022-10-22T04:49:21.850Z,3.10
2022-10-22T04:51:49.768Z,3.17
2022-10-22T04:54:16.492Z,3.40
2022-10-22T04:56:43.009Z,3.08
2022-10-22T04:59:11.043Z,3.50
2022-10-22T05:01:42.760Z,4.10
2022-10-22T05:04:12.049Z,4.40
2022-10-22T05:06:38.618Z,4.10
2022-10-22T05:09:10.689Z,3.50
2022-10-22T05:11:39.425Z,3.53
2022-10-22T05:14:07.893Z,4.20
2022-10-22T05:16:35.127Z,3.30
2022-10-22T05:19:02.643Z,3.83
2022-10-22T05:21:29.325Z,4.00
2022-10-22T05:23:57.071Z,3.80
2022-10-22T05:26:25.938Z,3.83
2022-10-22T05:28:52.885Z,3.88
2022-10-22T05:31:27.113Z,3.70
2022-10-22T05:33:53.740Z,3.60
2022-10-22T05:36:22.372Z,4.00
2022-10-22T05:38:49.859Z,4.40
2022-10-22T05:41:17.950Z,3.78
2022-10-22T05:43:46.330Z,3.92
2022-10-22T05:46:16.623Z,3.97
2022-10-22T05:48:49.322Z,4.13
2022-10-22T05:51:16.145Z,4.22
2022-10-22T05:53:43.518Z,3.78
2022-10-22T05:56:12.866Z,3.72
2022-10-22T05:58:39.549Z,3.60
2022-10-22T06:01:10.958Z,3.22
2022-10-22T06:03:37.586Z,5.10
2022-10-22T06:06:12.147Z,6.78
2022-10-22T06:08:38.745Z,5.10
2022-10-22T06:11:05.558Z,4.45
2022-10-22T06:13:32.113Z,3.72
2022-10-22T06:15:58.932Z,3.90
2022-10-22T06:18:26.835Z,3.17
2022-10-22T06:20:53.365Z,2.22
2022-10-22T06:23:19.932Z,2.20
2022-10-22T06:25:56.518Z,2.05
2022-10-22T06:30:50.522Z,1.48
2022-10-22T06:33:17.075Z,1.30
2022-10-22T06:35:45.081Z,1.30
2022-10-22T06:38:11.744Z,1.05
2022-10-22T06:40:38.281Z,1.55
2022-10-22T06:43:04.792Z,1.20
2022-10-22T06:45:31.338Z,1.10
2022-10-22T06:47:57.848Z,1.60
2022-10-22T06:50:24.412Z,1.20
2022-10-22T06:52:52.325Z,1.25
2022-10-22T06:55:18.898Z,1.10
2022-10-22T06:57:47.090Z,1.00
2022-10-22T07:00:14.434Z,1.27
2022-10-22T07:02:41.399Z,1.10
2022-10-22T07:05:09.113Z,1.13
2022-10-22T07:07:35.631Z,1.60
2022-10-22T07:10:03.894Z,1.88
2022-10-22T07:12:30.475Z,1.42
2022-10-22T07:14:57.018Z,1.58
2022-10-22T07:17:23.550Z,1.80
2022-10-22T07:19:51.316Z,1.40
2022-10-22T07:22:18.720Z,1.92
2022-10-22T07:24:45.303Z,2.10
2022-10-22T07:27:13.297Z,2.50
2022-10-22T07:29:39.820Z,2.38
2022-10-22T07:32:06.798Z,1.70
2022-10-22T07:34:33.355Z,2.15
2022-10-22T07:36:59.988Z,1.67
2022-10-22T07:39:26.600Z,1.52
2022-10-22T07:41:53.256Z,1.35
2022-10-22T07:44:21.321Z,1.40
2022-10-22T07:46:49.019Z,1.10
2022-10-22T07:49:15.729Z,1.30
2022-10-22T07:51:42.348Z,1.20
2022-10-22T07:54:08.969Z,1.40
2022-10-22T07:56:35.544Z,2.10
2022-10-22T08:01:29.947Z,3.13
2022-10-22T08:03:56.498Z,2.70
2022-10-22T08:06:23.071Z,1.50
2022-10-22T08:08:49.658Z,1.60
2022-10-22T08:11:16.320Z,1.60
2022-10-22T08:13:45.396Z,1.40
2022-10-22T08:16:12.662Z,1.55
2022-10-22T08:18:40.599Z,1.25
2022-10-22T08:21:07.272Z,1.30
2022-10-22T08:23:33.847Z,1.55
2022-10-22T08:26:00.489Z,1.08
2022-10-22T08:28:27.115Z,1.35
2022-10-22T08:30:54.459Z,1.30
2022-10-22T08:33:21.583Z,1.20
2022-10-22T08:35:51.438Z,1.42
2022-10-22T08:38:19.286Z,1.92
2022-10-22T08:43:37.295Z,1.42
2022-10-22T08:46:13.127Z,1.10
2022-10-22T08:48:45.681Z,1.42
2022-10-22T08:51:20.621Z,1.27
2022-10-22T08:54:16.020Z,1.27
2022-10-22T08:56:45.509Z,1.30
2022-10-22T08:59:17.273Z,1.50
2022-10-22T09:01:47.729Z,1.30
2022-10-22T09:04:19.543Z,1.00
2022-10-22T09:06:49.593Z,1.00
2022-10-22T09:09:20.271Z,0.80
2022-10-22T09:11:49.620Z,1.10
2022-10-22T09:14:18.390Z,1.15
2022-10-22T09:17:04.979Z,1.42
2022-10-22T09:19:39.531Z,1.48
2022-10-22T09:22:17.846Z,1.60
2022-10-22T09:24:46.478Z,1.23
2022-10-22T09:27:16.275Z,1.65
2022-10-22T09:29:44.628Z,1.50
2022-10-22T09:32:11.401Z,1.42
2022-10-22T09:34:38.387Z,1.50
2022-10-22T09:37:07.525Z,1.87
2022-10-22T09:39:39.065Z,1.52
2022-10-22T09:42:06.309Z,1.27
2022-10-22T09:44:34.136Z,1.52
2022-10-22T09:47:03.440Z,1.40
2022-10-22T09:49:33.761Z,1.43
2022-10-22T09:52:01.125Z,1.65
2022-10-22T09:54:41.672Z,1.60
2022-10-22T09:57:14.776Z,1.40
2022-10-22T09:59:42.894Z,1.67
2022-10-22T10:02:26.574Z,2.13
2022-10-22T10:05:02.975Z,1.60
2022-10-22T10:07:31.923Z,1.40
2022-10-22T10:10:00.002Z,1.08
2022-10-22T10:12:36.077Z,1.33
2022-10-22T10:15:12.540Z,2.37
2022-10-22T10:17:45.012Z,1.30
2022-10-22T10:20:23.759Z,1.70
2022-10-22T10:22:58.301Z,1.77
2022-10-22T10:25:52.561Z,1.35
2022-10-22T10:28:31.270Z,1.47
2022-10-22T10:31:11.700Z,1.75
2022-10-22T10:33:46.931Z,1.10
2022-10-22T10:36:19.370Z,1.48
2022-10-22T10:38:56.164Z,0.98
2022-10-22T10:41:32.039Z,1.57
2022-10-22T10:44:17.556Z,1.52
2022-10-22T10:46:49.940Z,1.55
2022-10-22T10:49:20.030Z,1.10
2022-10-22T10:51:53.981Z,1.20
2022-10-22T10:54:34.054Z,1.20
2022-10-22T10:57:04.855Z,1.10
2022-10-22T10:59:45.061Z,0.98
2022-10-22T11:02:51.384Z,0.90
2022-10-22T11:05:31.994Z,1.13
2022-10-22T11:08:03.165Z,1.10
2022-10-22T11:10:33.789Z,1.15
2022-10-22T11:13:11.061Z,1.15
2022-10-22T11:15:39.959Z,1.00
2022-10-22T11:18:17.381Z,1.08
2022-10-22T11:20:51.920Z,1.10
2022-10-22T11:23:26.005Z,1.05
2022-10-22T11:25:52.830Z,1.23
2022-10-22T11:28:25.921Z,1.08
2022-10-22T11:30:59.366Z,0.85
2022-10-22T11:33:33.143Z,1.50
2022-10-22T11:36:02.460Z,1.60
2022-10-22T11:38:30.668Z,1.30
2022-10-22T11:41:01.991Z,1.10
2022-10-22T11:43:32.771Z,1.02
2022-10-22T11:46:24.834Z,1.20
2022-10-22T11:49:02.635Z,1.00
2022-10-22T11:51:33.980Z,1.17
2022-10-22T11:54:02.380Z,0.98
2022-10-22T11:56:37.597Z,0.93
2022-10-22T11:59:28.651Z,1.13
2022-10-22T12:01:55.873Z,0.88
2022-10-22T12:04:39.334Z,0.80
2022-10-22T12:07:32.385Z,0.70
2022-10-22T12:09:59.244Z,0.70
2022-10-22T12:12:28.844Z,0.80
2022-10-22T12:14:57.891Z,0.70
2022-10-22T12:17:26.044Z,0.88
2022-10-22T12:20:02.059Z,1.00
2022-10-22T12:22:31.469Z,0.77
2022-10-22T12:25:01.456Z,0.60
2022-10-22T12:27:33.650Z,0.90
2022-10-22T12:30:16.110Z,0.60
2022-10-22T12:32:42.683Z,0.90
2022-10-22T12:35:20.935Z,0.82
2022-10-22T12:37:50.328Z,0.90
2022-10-22T12:40:18.945Z,1.00
2022-10-22T12:42:51.082Z,0.90
2022-10-22T12:45:19.677Z,1.00
2022-10-22T12:47:47.275Z,2.58
2022-10-22T12:50:18.428Z,1.67
2022-10-22T12:52:45.230Z,0.90
2022-10-22T12:55:16.394Z,1.20
2022-10-22T12:57:43.101Z,1.30
2022-10-22T13:00:32.753Z,0.98
2022-10-22T13:03:02.807Z,0.80
2022-10-22T13:05:32.358Z,0.90
2022-10-22T13:08:05.052Z,0.60
2022-10-22T13:10:33.254Z,0.80
2022-10-22T13:13:00.527Z,1.08
2022-10-22T13:15:41.640Z,0.90
2022-10-22T13:18:17.983Z,0.75
2022-10-22T13:20:52.928Z,1.13
2022-10-22T13:23:20.794Z,1.10
2022-10-22T13:25:57.821Z,1.00
2022-10-22T13:28:24.691Z,0.73
2022-10-22T13:30:54.509Z,0.80
2022-10-22T13:33:24.295Z,0.85
2022-10-22T13:35:51.069Z,0.88
2022-10-22T13:38:20.616Z,0.90
2022-10-22T13:40:47.857Z,0.80
2022-10-22T13:43:14.738Z,1.40
2022-10-22T13:45:41.767Z,1.40
2022-10-22T13:48:13.697Z,1.38
2022-10-22T13:50:40.321Z,0.80
2022-10-22T13:53:18.671Z,1.20
2022-10-22T13:55:53.091Z,1.20
2022-10-22T13:58:21.421Z,0.85
2022-10-22T14:00:50.955Z,0.52
2022-10-22T14:03:21.648Z,0.60
2022-10-22T14:05:48.837Z,0.73
2022-10-22T14:08:17.602Z,0.80
2022-10-22T14:10:44.585Z,0.68
2022-10-22T14:13:12.244Z,0.80
2022-10-22T14:15:39.545Z,0.68
2022-10-22T14:18:08.281Z,0.70
2022-10-22T14:20:40.054Z,0.60
2022-10-22T14:23:14.502Z,0.70
2022-10-22T14:25:41.414Z,0.52
2022-10-22T14:28:09.371Z,0.70
2022-10-22T14:30:36.366Z,0.70
2022-10-22T14:33:09.065Z,0.90
2022-10-22T14:35:37.110Z,0.50
2022-10-22T14:38:03.711Z,0.60
2022-10-22T14:40:30.307Z,0.77
2022-10-22T14:42:56.944Z,0.80
2022-10-22T14:45:25.937Z,0.70
2022-10-22T14:47:53.437Z,0.60
2022-10-22T14:50:20.099Z,1.00
2022-10-22T14:52:48.373Z,1.45
2022-10-22T14:55:16.681Z,1.17
2022-10-22T14:57:44.121Z,1.30
2022-10-22T15:00:17.812Z,1.48
2022-10-22T15:02:45.286Z,1.50
2022-10-22T15:05:12.251Z,0.65
2022-10-22T15:07:39.596Z,0.70
2022-10-22T15:10:09.142Z,0.75
2022-10-22T15:12:35.930Z,1.13
2022-10-22T15:15:02.592Z,0.85
2022-10-22T15:17:29.182Z,0.90
2022-10-22T15:19:55.780Z,1.70
2022-10-22T15:22:22.407Z,1.80
2022-10-22T15:24:49.214Z,2.03
2022-10-22T15:27:17.171Z,1.92
2022-10-22T15:29:43.788Z,2.30
2022-10-22T15:32:10.716Z,1.77
2022-10-22T15:34:38.802Z,1.85
2022-10-22T15:37:08.351Z,1.80
2022-10-22T15:39:36.055Z,1.80
2022-10-22T15:42:02.652Z,1.60
2022-10-22T15:44:31.689Z,1.80
2022-10-22T15:46:58.742Z,1.80
2022-10-22T15:49:26.790Z,2.05
2022-10-22T15:51:54.283Z,2.10
2022-10-22T15:54:22.320Z,2.10
2022-10-22T15:56:49.045Z,2.10
2022-10-22T15:59:16.643Z,2.70
2022-10-22T16:01:45.000Z,2.40
2022-10-22T16:04:11.922Z,2.33
2022-10-22T16:06:47.754Z,2.45
2022-10-22T16:09:18.838Z,3.07
2022-10-22T16:11:48.409Z,3.10
2022-10-22T16:14:16.877Z,3.47
2022-10-22T16:16:46.583Z,4.00
2022-10-22T16:19:14.595Z,3.53
2022-10-22T16:21:41.197Z,3.50
2022-10-22T16:24:08.813Z,4.07
2022-10-22T16:26:35.627Z,4.00
2022-10-22T16:29:02.493Z,3.67
2022-10-22T16:31:29.101Z,3.28
2022-10-22T16:33:57.641Z,3.40
2022-10-22T16:36:24.322Z,3.30
2022-10-22T16:38:50.880Z,3.42
2022-10-22T16:41:19.186Z,3.75
2022-10-22T16:43:47.631Z,4.40
2022-10-22T16:46:15.355Z,8.53
2022-10-22T16:48:45.258Z,7.85
2022-10-22T16:51:15.539Z,6.80
2022-10-22T16:53:42.145Z,6.47
2022-10-22T16:56:08.928Z,6.47
2022-10-22T16:58:35.499Z,8.30
2022-10-22T17:01:06.290Z,14.73
2022-10-22T17:03:32.884Z,13.18
2022-10-22T17:05:59.504Z,12.05
2022-10-22T17:08:27.550Z,8.18
2022-10-22T17:10:54.099Z,9.23
2022-10-22T17:13:21.570Z,14.80
2022-10-22T17:15:48.184Z,12.20
2022-10-22T17:18:15.463Z,10.23
2022-10-22T17:20:42.427Z,10.13
2022-10-22T17:23:08.996Z,9.33
2022-10-22T17:25:41.974Z,9.52
2022-10-22T17:28:08.608Z,8.23
2022-10-22T17:30:35.301Z,5.38
2022-10-22T17:33:01.927Z,5.57
2022-10-22T17:35:28.640Z,5.50
2022-10-22T17:37:55.303Z,5.45
2022-10-22T17:40:22.364Z,4.72
2022-10-22T17:42:50.310Z,5.75
2022-10-22T17:45:16.918Z,3.65
2022-10-22T17:47:43.781Z,3.25
2022-10-22T17:50:10.884Z,3.33
2022-10-22T17:52:37.442Z,3.65
2022-10-22T17:55:04.899Z,3.95
2022-10-22T17:57:31.491Z,3.40
2022-10-22T17:59:59.390Z,3.30
2022-10-22T18:02:26.044Z,3.10
2022-10-22T18:04:52.706Z,3.40
2022-10-22T18:07:19.259Z,3.30
2022-10-22T18:09:46.006Z,2.58
2022-10-22T18:12:12.570Z,3.40
2022-10-22T18:14:40.091Z,3.30
2022-10-22T18:17:08.267Z,3.10
2022-10-22T18:19:34.918Z,3.20
2022-10-22T18:22:01.591Z,3.38
2022-10-22T18:24:28.134Z,3.23
2022-10-22T18:26:54.713Z,2.97
2022-10-22T18:29:21.282Z,2.78
2022-10-22T18:31:48.352Z,3.15
2022-10-22T18:34:19.018Z,3.38
2022-10-22T18:36:48.302Z,4.00
2022-10-22T18:39:15.583Z,5.25
2022-10-22T18:41:42.832Z,6.20
2022-10-22T18:44:12.657Z,5.55
2022-10-22T18:46:39.267Z,5.43
2022-10-22T18:49:06.934Z,5.22
2022-10-22T18:51:35.593Z,5.70
2022-10-22T18:54:21.672Z,5.25
2022-10-22T18:56:49.103Z,6.10
2022-10-22T18:59:18.051Z,5.45
2022-10-22T19:01:44.600Z,7.00
2022-10-22T19:09:39.721Z,6.85
2022-10-22T19:12:06.596Z,5.43
2022-10-22T19:14:33.336Z,5.65
2022-10-22T19:16:59.912Z,5.57
2022-10-22T19:19:26.656Z,6.30
2022-10-22T19:21:53.299Z,5.88
2022-10-22T19:24:21.337Z,5.95
2022-10-22T19:26:48.850Z,6.93
2022-10-22T19:29:17.212Z,6.40
2022-10-22T19:31:50.098Z,6.53
2022-10-22T19:34:17.162Z,7.47
2022-10-22T19:36:43.756Z,5.30
2022-10-22T19:39:10.331Z,4.93
2022-10-22T19:41:38.824Z,4.57
2022-10-22T19:44:05.401Z,4.95
2022-10-22T19:46:31.937Z,4.78
2022-10-22T19:48:58.741Z,5.15
2022-10-22T19:51:27.702Z,4.45
2022-10-22T19:53:58.140Z,4.90
2022-10-22T19:56:25.059Z,3.65
2022-10-22T19:58:53.105Z,4.53
2022-10-22T20:01:19.963Z,4.50
2022-10-22T20:03:46.761Z,5.20
2022-10-22T20:06:15.794Z,5.47
2022-10-22T20:08:42.856Z,4.85
2022-10-22T20:11:11.616Z,4.88
2022-10-22T20:16:07.598Z,4.72
2022-10-22T20:18:34.454Z,4.82
2022-10-22T20:21:04.248Z,4.68
2022-10-22T20:23:30.868Z,5.20
2022-10-22T20:25:57.513Z,4.70
2022-10-22T20:28:24.200Z,4.63
2022-10-22T20:30:50.814Z,4.25
2022-10-22T20:33:18.909Z,4.45
2022-10-22T20:35:45.403Z,5.32
2022-10-22T20:38:14.557Z,4.35
2022-10-22T20:40:41.451Z,4.32
2022-10-22T20:43:10.538Z,6.78
2022-10-22T20:45:38.899Z,4.60
2022-10-22T20:48:06.050Z,4.20
2022-10-22T20:50:34.257Z,3.95
2022-10-22T20:53:00.949Z,3.42
2022-10-22T20:55:27.667Z,3.85
2022-10-22T20:57:54.882Z,3.75
2022-10-22T21:00:21.551Z,3.50
2022-10-22T21:02:55.025Z,3.70
2022-10-22T21:05:21.599Z,3.33
2022-10-22T21:07:49.485Z,3.40
2022-10-22T21:10:16.089Z,3.08
2022-10-22T21:12:42.841Z,3.85
2022-10-22T21:15:12.597Z,4.45
2022-10-22T21:17:39.498Z,3.88
2022-10-22T21:20:06.725Z,3.72
2022-10-22T21:22:33.348Z,4.15
2022-10-22T21:25:01.339Z,4.85
2022-10-22T21:27:27.921Z,4.88
2022-10-22T21:29:54.591Z,3.90
2022-10-22T21:32:21.243Z,4.10
2022-10-22T21:34:47.834Z,4.60
2022-10-22T21:37:14.387Z,4.65
2022-10-22T21:39:42.153Z,4.95
2022-10-22T21:42:10.261Z,4.88
2022-10-22T21:44:36.803Z,5.28
2022-10-22T21:47:03.451Z,4.35
2022-10-22T21:49:30.213Z,4.05
2022-10-22T21:51:56.780Z,4.40
2022-10-22T21:54:23.475Z,4.32
2022-10-22T21:56:50.031Z,5.20
2022-10-22T21:59:20.307Z,5.07
2022-10-22T22:01:47.006Z,4.72
2022-10-22T22:04:13.643Z,4.70
2022-10-22T22:06:40.348Z,5.20
2022-10-22T22:09:07.250Z,5.18
2022-10-22T22:11:33.826Z,4.45
2022-10-22T22:14:00.334Z,5.05
2022-10-22T22:16:32.463Z,4.93
2022-10-22T22:19:00.781Z,5.03
2022-10-22T22:21:28.014Z,4.35
2022-10-22T22:23:54.634Z,5.40
2022-10-22T22:26:26.648Z,5.28
2022-10-22T22:28:56.372Z,5.07
2022-10-22T22:31:24.488Z,5.85
2022-10-22T22:33:57.837Z,6.00
2022-10-22T22:36:24.392Z,5.30
2022-10-22T22:38:53.922Z,5.13
2022-10-22T22:41:20.483Z,4.82
2022-10-22T22:43:47.045Z,4.85
2022-10-22T22:46:15.271Z,5.15
2022-10-22T22:48:41.815Z,5.30
2022-10-22T22:51:10.168Z,5.90
2022-10-22T22:53:36.703Z,5.70
2022-10-22T22:56:08.106Z,5.13
2022-10-22T22:58:35.394Z,4.78
2022-10-22T23:01:16.672Z,5.50
2022-10-22T23:03:45.097Z,6.18
2022-10-22T23:06:14.056Z,4.75
2022-10-22T23:08:41.129Z,5.20
2022-10-22T23:11:10.721Z,5.22
2022-10-22T23:13:38.056Z,5.20
2022-10-22T23:16:06.089Z,5.07
2022-10-22T23:18:32.765Z,4.95
2022-10-22T23:21:02.541Z,5.50
2022-10-22T23:23:31.642Z,5.93
2022-10-22T23:28:29.860Z,4.65
2022-10-22T23:30:56.484Z,5.15
2022-10-22T23:33:23.020Z,4.93
2022-10-22T23:35:49.559Z,5.72
2022-10-22T23:38:16.121Z,5.13
2022-10-22T23:40:44.052Z,5.32
2022-10-22T23:43:10.552Z,5.70
2022-10-22T23:45:37.068Z,5.20
2022-10-22T23:48:04.025Z,4.35
2022-10-22T23:50:30.579Z,4.75
2022-10-22T23:52:57.099Z,4.90
2022-10-22T23:55:23.727Z,4.88
2022-10-22T23:57:51.671Z,4.22
